createdAt,value
2019-04-05T00:02:20.743Z,13.17
2019-04-05T00:04:53.837Z,13.23
2019-04-05T00:07:20.757Z,12.43
2019-04-05T00:09:46.993Z,10.57
2019-04-05T00:12:18.542Z,10.27
2019-04-05T00:14:44.800Z,9.83
2019-04-05T00:17:11.135Z,11.53
2019-04-05T00:19:37.299Z,9.63
2019-04-05T00:22:03.592Z,8.97
2019-04-05T00:24:29.706Z,10.87
2019-04-05T00:26:56.087Z,11.20
2019-04-05T00:29:22.678Z,10.57
2019-04-05T00:31:48.926Z,9.97
2019-04-05T00:34:15.302Z,8.93
2019-04-05T00:36:41.543Z,9.37
2019-04-05T00:39:09.896Z,8.83
2019-04-05T00:41:37.640Z,9.43
2019-04-05T00:44:06.855Z,8.07
2019-04-05T00:46:33.298Z,8.57
2019-04-05T00:49:01.503Z,7.93
2019-04-05T00:51:27.817Z,8.77
2019-04-05T00:53:55.113Z,8.53
2019-04-05T00:56:25.181Z,8.03
2019-04-05T00:58:53.856Z,7.30
2019-04-05T01:01:21.197Z,7.10
2019-04-05T01:03:47.697Z,7.30
2019-04-05T01:06:15.267Z,7.10
2019-04-05T01:08:41.833Z,8.47
2019-04-05T01:11:08.416Z,7.93
2019-04-05T01:13:37.913Z,8.40
2019-04-05T01:16:04.268Z,9.07
2019-04-05T01:18:31.396Z,8.10
2019-04-05T01:21:01.360Z,7.80
2019-04-05T01:23:27.808Z,7.13
2019-04-05T01:25:57.332Z,6.80
2019-04-05T01:28:23.999Z,7.40
2019-04-05T01:30:50.172Z,8.33
2019-04-05T01:33:16.931Z,7.53
2019-04-05T01:35:45.417Z,7.80
2019-04-05T01:38:14.107Z,11.10
2019-04-05T01:40:47.347Z,12.43
2019-04-05T01:43:18.186Z,12.07
2019-04-05T01:45:53.618Z,11.13
2019-04-05T01:48:19.206Z,11.23
2019-04-05T01:50:45.532Z,11.83
2019-04-05T01:53:15.537Z,11.13
2019-04-05T01:55:45.437Z,10.47
2019-04-05T01:58:16.233Z,9.60
2019-04-05T02:00:42.550Z,9.90
2019-04-05T02:03:11.966Z,9.63
2019-04-05T02:05:38.535Z,8.17
2019-04-05T02:08:05.291Z,8.87
2019-04-05T02:10:32.539Z,8.93
2019-04-05T02:12:58.991Z,9.03
2019-04-05T02:15:28.908Z,9.57
2019-04-05T02:17:57.785Z,9.30
2019-04-05T02:20:27.039Z,9.83
2019-04-05T02:22:53.283Z,7.53
2019-04-05T02:25:19.724Z,8.03
2019-04-05T02:27:46.214Z,7.90
2019-04-05T02:30:12.796Z,10.07
2019-04-05T02:32:39.254Z,8.60
2019-04-05T02:35:06.994Z,8.47
2019-04-05T02:37:33.514Z,7.50
2019-04-05T02:39:59.985Z,7.87
2019-04-05T02:42:27.064Z,8.53
2019-04-05T02:44:53.544Z,7.27
2019-04-05T02:47:20.415Z,8.40
2019-04-05T02:49:51.319Z,8.77
2019-04-05T02:52:18.061Z,8.30
2019-04-05T02:54:45.344Z,9.67
2019-04-05T02:57:12.166Z,8.43
2019-04-05T02:59:39.270Z,8.30
2019-04-05T03:02:05.718Z,9.27
2019-04-05T03:04:32.198Z,8.43
2019-04-05T03:06:59.302Z,7.77
2019-04-05T03:09:26.035Z,7.60
2019-04-05T03:11:55.489Z,6.53
2019-04-05T03:14:24.328Z,6.47
2019-04-05T03:16:53.571Z,7.73
2019-04-05T03:19:23.925Z,7.27
2019-04-05T03:21:53.186Z,7.50
2019-04-05T03:24:23.132Z,6.97
2019-04-05T03:26:56.233Z,7.43
2019-04-05T03:29:22.691Z,7.17
2019-04-05T03:31:49.296Z,7.30
2019-04-05T03:34:16.527Z,6.13
2019-04-05T03:36:45.682Z,6.50
2019-04-05T03:39:12.311Z,6.67
2019-04-05T03:41:38.835Z,6.60
2019-04-05T03:44:07.526Z,5.97
2019-04-05T03:46:36.866Z,5.83
2019-04-05T03:49:04.063Z,5.73
2019-04-05T03:51:30.819Z,5.90
2019-04-05T03:53:58.069Z,5.93
2019-04-05T03:56:27.325Z,6.17
2019-04-05T03:58:53.776Z,6.20
2019-04-05T04:01:23.519Z,5.77
2019-04-05T04:03:49.879Z,5.80
2019-04-05T04:06:16.277Z,10.60
2019-04-05T04:08:45.168Z,12.17
2019-04-05T04:11:15.288Z,11.73
2019-04-05T04:13:48.514Z,11.30
2019-04-05T04:16:15.847Z,12.13
2019-04-05T04:18:42.631Z,12.43
2019-04-05T04:21:23.022Z,13.10
2019-04-05T04:23:50.610Z,11.90
2019-04-05T04:26:21.704Z,12.60
2019-04-05T04:31:39.612Z,10.07
2019-04-05T04:34:08.283Z,9.67
2019-04-05T04:36:36.822Z,8.90
2019-04-05T04:39:06.458Z,8.93
2019-04-05T04:41:35.205Z,8.83
2019-04-05T04:44:07.227Z,8.53
2019-04-05T04:46:33.672Z,8.33
2019-04-05T04:49:00.240Z,10.47
2019-04-05T04:51:26.999Z,14.30
2019-04-05T04:53:53.616Z,14.53
2019-04-05T04:56:22.746Z,12.83
2019-04-05T04:58:51.754Z,13.22
2019-04-05T05:01:22.081Z,14.53
2019-04-05T05:03:55.267Z,15.17
2019-04-05T05:06:20.873Z,14.93
2019-04-05T05:08:47.568Z,13.70
2019-04-05T05:11:15.144Z,15.00
2019-04-05T05:13:41.781Z,14.77
2019-04-05T05:16:08.008Z,12.80
2019-04-05T05:18:34.568Z,13.60
2019-04-05T05:21:01.234Z,12.97
2019-04-05T05:23:28.687Z,12.00
2019-04-05T05:25:55.176Z,12.13
2019-04-05T05:28:21.748Z,10.93
2019-04-05T05:30:48.703Z,10.17
2019-04-05T05:33:15.231Z,9.87
2019-04-05T05:35:41.671Z,11.40
2019-04-05T05:38:08.320Z,10.97
2019-04-05T05:40:35.680Z,11.63
2019-04-05T05:43:02.185Z,11.17
2019-04-05T05:45:28.521Z,11.50
2019-04-05T05:47:55.041Z,10.40
2019-04-05T05:50:21.233Z,9.50
2019-04-05T05:52:48.090Z,10.57
2019-04-05T05:55:14.219Z,12.80
2019-04-05T05:57:41.270Z,10.47
2019-04-05T06:00:08.380Z,15.03
2019-04-05T06:02:38.798Z,17.50
2019-04-05T06:05:06.126Z,16.53
2019-04-05T06:07:32.265Z,15.20
2019-04-05T06:09:58.487Z,13.63
2019-04-05T06:12:24.740Z,15.10
2019-04-05T06:14:51.035Z,12.97
2019-04-05T06:17:17.274Z,13.50
2019-04-05T06:19:43.532Z,12.50
2019-04-05T06:22:09.805Z,10.27
2019-04-05T06:24:36.143Z,10.27
2019-04-05T06:27:02.464Z,10.13
2019-04-05T06:29:28.751Z,13.53
2019-04-05T06:31:54.878Z,12.13
2019-04-05T06:34:21.095Z,10.60
2019-04-05T06:36:47.273Z,9.87
2019-04-05T06:39:13.523Z,12.03
2019-04-05T06:41:39.817Z,11.50
2019-04-05T06:44:06.862Z,10.40
2019-04-05T06:46:33.199Z,10.03
2019-04-05T06:48:59.455Z,11.00
2019-04-05T06:51:25.739Z,10.50
2019-04-05T06:53:52.198Z,9.73
2019-04-05T06:56:18.362Z,11.90
2019-04-05T06:58:47.536Z,11.43
2019-04-05T07:01:14.276Z,12.27
2019-04-05T07:03:40.598Z,12.87
2019-04-05T07:06:06.713Z,11.67
2019-04-05T07:08:32.954Z,12.27
2019-04-05T07:11:00.013Z,11.03
2019-04-05T07:13:27.549Z,10.77
2019-04-05T07:15:54.022Z,11.87
2019-04-05T07:18:32.549Z,11.17
2019-04-05T07:20:48.959Z,11.07
2019-04-05T07:23:15.229Z,10.97
2019-04-05T07:25:45.466Z,9.93
2019-04-05T07:28:11.678Z,9.97
2019-04-05T07:30:37.892Z,10.13
2019-04-05T07:33:04.236Z,9.60
2019-04-05T07:35:33.797Z,9.60
2019-04-05T07:37:58.707Z,9.60
2019-04-05T07:40:25.505Z,8.87
2019-04-05T07:42:51.818Z,9.53
2019-04-05T07:45:18.379Z,12.60
2019-04-05T07:47:44.589Z,13.97
2019-04-05T07:50:12.028Z,12.17
2019-04-05T07:52:38.290Z,12.27
2019-04-05T07:55:06.220Z,11.87
2019-04-05T07:57:32.464Z,14.87
2019-04-05T07:59:58.725Z,13.33
2019-04-05T08:02:25.161Z,13.17
2019-04-05T08:04:51.432Z,13.60
2019-04-05T08:07:18.607Z,14.10
2019-04-05T08:09:45.068Z,12.80
2019-04-05T08:12:11.719Z,14.67
2019-04-05T08:14:37.926Z,14.20
2019-04-05T08:17:04.303Z,13.10
2019-04-05T08:19:30.666Z,13.33
2019-04-05T08:21:57.056Z,13.37
2019-04-05T08:24:23.284Z,14.50
2019-04-05T08:26:49.522Z,13.53
2019-04-05T08:29:15.743Z,12.40
2019-04-05T08:31:42.081Z,11.93
2019-04-05T08:34:11.696Z,13.53
2019-04-05T08:36:37.940Z,13.47
2019-04-05T08:39:17.340Z,15.90
2019-04-05T08:41:48.741Z,15.23
2019-04-05T08:44:15.137Z,14.97
2019-04-05T08:46:41.408Z,15.20
2019-04-05T08:49:11.033Z,13.57
2019-04-05T08:51:39.207Z,16.03
2019-04-05T08:54:05.471Z,14.60
2019-04-05T08:56:41.695Z,15.40
2019-04-05T08:59:17.513Z,17.27
2019-04-05T09:01:44.660Z,16.43
2019-04-05T09:04:17.787Z,16.87
2019-04-05T09:06:47.506Z,16.73
2019-04-05T09:09:13.736Z,19.00
2019-04-05T09:11:44.671Z,20.73
2019-04-05T09:14:10.950Z,19.37
2019-04-05T09:16:37.346Z,18.53
2019-04-05T09:19:03.740Z,16.73
2019-04-05T09:21:30.026Z,19.17
2019-04-05T09:23:59.128Z,19.70
2019-04-05T09:26:24.467Z,21.07
2019-04-05T09:28:50.678Z,35.50
2019-04-05T09:31:17.028Z,31.87
2019-04-05T09:33:43.257Z,26.90
2019-04-05T09:36:09.636Z,24.17
2019-04-05T09:38:36.686Z,25.80
2019-04-05T09:41:03.206Z,24.50
2019-04-05T09:43:29.434Z,23.97
2019-04-05T09:45:55.563Z,22.87
2019-04-05T09:48:21.949Z,22.90
2019-04-05T09:50:54.598Z,19.96
2019-04-05T09:53:21.180Z,21.48
2019-04-05T09:55:47.487Z,19.77
2019-04-05T09:58:13.730Z,25.23
2019-04-05T10:00:40.272Z,23.87
2019-04-05T10:03:06.542Z,24.37
2019-04-05T10:05:32.835Z,23.00
2019-04-05T10:07:59.085Z,20.23
2019-04-05T10:10:25.472Z,20.10
2019-04-05T10:12:52.588Z,19.02
2019-04-05T10:15:21.529Z,20.68
2019-04-05T10:17:46.836Z,18.35
2019-04-05T10:20:13.323Z,17.77
2019-04-05T10:22:39.757Z,18.15
2019-04-05T10:25:06.312Z,16.62
2019-04-05T10:27:32.825Z,18.55
2019-04-05T10:29:59.026Z,18.87
2019-04-05T10:32:25.277Z,18.00
2019-04-05T10:34:51.437Z,19.52
2019-04-05T10:37:17.669Z,17.25
2019-04-05T10:39:43.786Z,21.48
2019-04-05T10:42:29.147Z,19.42
2019-04-05T10:44:55.480Z,20.48
2019-04-05T10:47:21.825Z,19.00
2019-04-05T10:49:47.970Z,19.37
2019-04-05T10:52:14.226Z,18.10
2019-04-05T10:54:40.551Z,21.25
2019-04-05T10:57:07.057Z,21.48
2019-04-05T10:59:33.201Z,19.80
2019-04-05T11:01:59.439Z,22.37
2019-04-05T11:04:25.594Z,21.45
2019-04-05T11:06:51.919Z,19.52
2019-04-05T11:09:18.185Z,20.15
2019-04-05T11:11:44.431Z,19.50
2019-04-05T11:14:13.931Z,21.42
2019-04-05T11:16:38.756Z,18.90
2019-04-05T11:19:05.091Z,18.57
2019-04-05T11:21:31.463Z,16.62
2019-04-05T11:23:57.880Z,18.90
2019-04-05T11:26:24.161Z,17.30
2019-04-05T11:28:50.346Z,18.10
2019-04-05T11:31:16.538Z,19.07
2019-04-05T11:33:42.993Z,17.80
2019-04-05T11:36:09.471Z,21.57
2019-04-05T11:38:35.829Z,21.25
2019-04-05T11:41:02.089Z,19.32
2019-04-05T11:43:31.329Z,20.95
2019-04-05T11:45:58.559Z,19.35
2019-04-05T11:48:25.002Z,18.65
2019-04-05T11:50:51.252Z,15.70
2019-04-05T11:53:17.707Z,18.35
2019-04-05T11:55:46.382Z,16.65
2019-04-05T11:58:12.008Z,16.07
2019-04-05T12:00:52.319Z,15.60
2019-04-05T12:03:22.906Z,14.63
2019-04-05T12:05:51.473Z,15.70
2019-04-05T12:08:17.860Z,13.80
2019-04-05T12:10:44.171Z,13.25
2019-04-05T12:13:10.420Z,12.28
2019-04-05T12:15:36.746Z,12.37
2019-04-05T12:18:04.617Z,14.80
2019-04-05T12:20:33.227Z,13.05
2019-04-05T12:22:59.581Z,11.38
2019-04-05T12:25:29.659Z,12.73
2019-04-05T12:28:05.670Z,12.00
2019-04-05T12:30:35.691Z,13.30
2019-04-05T12:33:13.566Z,14.10
2019-04-05T12:35:37.784Z,13.45
2019-04-05T12:38:06.859Z,13.88
2019-04-05T12:40:32.288Z,11.75
2019-04-05T12:42:58.570Z,12.18
2019-04-05T12:45:36.220Z,14.52
2019-04-05T12:48:02.636Z,13.25
2019-04-05T12:50:29.418Z,12.70
2019-04-05T12:52:56.859Z,12.58
2019-04-05T12:55:24.078Z,13.53
2019-04-05T12:57:50.829Z,12.98
2019-04-05T13:00:18.527Z,12.63
2019-04-05T13:02:44.686Z,11.78
2019-04-05T13:05:11.239Z,11.28
2019-04-05T13:07:37.356Z,12.50
2019-04-05T13:10:04.048Z,11.95
2019-04-05T13:12:30.288Z,13.08
2019-04-05T13:15:12.399Z,13.13
2019-04-05T13:17:31.024Z,12.50
2019-04-05T13:19:58.392Z,13.45
2019-04-05T13:22:25.311Z,13.18
2019-04-05T13:24:51.503Z,12.53
2019-04-05T13:27:21.224Z,13.45
2019-04-05T13:29:49.180Z,14.77
2019-04-05T13:32:17.095Z,14.63
2019-04-05T13:34:43.564Z,16.35
2019-04-05T13:37:19.576Z,15.72
2019-04-05T13:39:37.952Z,15.93
2019-04-05T13:42:04.689Z,14.35
2019-04-05T13:44:31.853Z,14.60
2019-04-05T13:46:58.866Z,16.77
2019-04-05T13:49:25.217Z,15.60
2019-04-05T13:51:51.485Z,15.25
2019-04-05T13:54:17.750Z,15.20
2019-04-05T13:56:44.757Z,15.55
2019-04-05T13:59:11.198Z,15.10
2019-04-05T14:01:37.516Z,14.40
2019-04-05T14:04:04.137Z,16.45
2019-04-05T14:06:30.526Z,16.85
2019-04-05T14:08:56.931Z,15.35
2019-04-05T14:11:25.793Z,15.05
2019-04-05T14:13:51.378Z,14.60
2019-04-05T14:16:17.509Z,13.53
2019-04-05T14:18:47.990Z,15.10
2019-04-05T14:21:12.055Z,15.58
2019-04-05T14:23:38.516Z,15.15
2019-04-05T14:26:05.113Z,15.05
2019-04-05T14:28:32.345Z,17.05
2019-04-05T14:31:02.254Z,14.53
2019-04-05T14:33:27.418Z,15.32
2019-04-05T14:35:54.678Z,16.42
2019-04-05T14:38:23.172Z,15.98
2019-04-05T14:40:50.028Z,13.45
2019-04-05T14:43:16.293Z,14.93
2019-04-05T14:45:42.553Z,15.63
2019-04-05T14:48:08.931Z,16.85
2019-04-05T14:50:35.340Z,16.20
2019-04-05T14:53:02.014Z,17.65
2019-04-05T14:55:29.954Z,17.55
2019-04-05T14:57:56.239Z,15.88
2019-04-05T15:00:22.573Z,20.08
2019-04-05T15:02:48.787Z,19.05
2019-04-05T15:05:15.219Z,16.57
2019-04-05T15:07:41.420Z,15.13
2019-04-05T15:10:07.956Z,13.77
2019-04-05T15:12:34.184Z,13.28
2019-04-05T15:15:00.354Z,13.80
2019-04-05T15:17:26.616Z,13.22
2019-04-05T15:19:52.830Z,13.48
2019-04-05T15:22:19.019Z,15.93
2019-04-05T15:24:47.134Z,13.80
2019-04-05T15:27:13.514Z,14.68
2019-04-05T15:29:39.755Z,13.63
2019-04-05T15:32:06.211Z,13.22
2019-04-05T15:34:32.646Z,14.33
2019-04-05T15:37:01.243Z,13.08
2019-04-05T15:39:30.470Z,12.90
2019-04-05T15:41:55.277Z,12.55
2019-04-05T15:44:21.517Z,13.43
2019-04-05T15:46:47.640Z,12.80
2019-04-05T15:49:13.811Z,12.05
2019-04-05T15:51:40.096Z,10.85
2019-04-05T15:54:06.423Z,11.20
2019-04-05T15:56:34.107Z,15.13
2019-04-05T15:59:03.631Z,13.77
2019-04-05T16:01:28.591Z,13.43
2019-04-05T16:03:54.832Z,12.73
2019-04-05T16:06:21.171Z,12.07
2019-04-05T16:08:47.644Z,13.08
2019-04-05T16:11:13.829Z,10.60
2019-04-05T16:13:40.154Z,11.33
2019-04-05T16:16:06.711Z,12.50
2019-04-05T16:18:32.865Z,11.50
2019-04-05T16:20:59.102Z,13.20
2019-04-05T16:23:25.523Z,11.93
2019-04-05T16:25:53.842Z,11.40
2019-04-05T16:28:20.074Z,12.57
2019-04-05T16:30:46.433Z,12.60
2019-04-05T16:33:12.764Z,10.80
2019-04-05T16:35:39.064Z,10.77
2019-04-05T16:38:05.494Z,11.07
2019-04-05T16:40:31.756Z,11.67
2019-04-05T16:43:02.801Z,11.10
2019-04-05T16:45:26.123Z,12.77
2019-04-05T16:47:52.469Z,11.00
2019-04-05T16:50:21.271Z,11.20
2019-04-05T16:52:46.933Z,10.47
2019-04-05T16:55:16.310Z,10.83
2019-04-05T16:57:42.764Z,12.60
2019-04-05T17:00:11.328Z,12.50
2019-04-05T17:02:37.852Z,10.97
2019-04-05T17:05:05.154Z,11.73
2019-04-05T17:07:31.535Z,11.00
2019-04-05T17:09:57.898Z,13.33
2019-04-05T17:12:24.660Z,13.87
2019-04-05T17:14:50.893Z,14.90
2019-04-05T17:17:17.127Z,12.93
2019-04-05T17:19:43.417Z,12.80
2019-04-05T17:22:09.686Z,12.58
2019-04-05T17:24:36.116Z,12.27
2019-04-05T17:27:02.484Z,11.03
2019-04-05T17:29:28.691Z,11.57
2019-04-05T17:31:55.236Z,10.00
2019-04-05T17:34:21.708Z,11.90
2019-04-05T17:36:48.086Z,10.10
2019-04-05T17:39:14.423Z,11.20
2019-04-05T17:41:40.798Z,11.73
2019-04-05T17:44:07.148Z,12.00
2019-04-05T17:46:33.510Z,11.13
2019-04-05T17:48:59.827Z,11.80
2019-04-05T17:51:26.170Z,10.33
2019-04-05T17:53:52.284Z,9.73
2019-04-05T17:56:19.179Z,9.33
2019-04-05T17:58:46.531Z,10.20
2019-04-05T18:01:12.901Z,9.03
2019-04-05T18:03:39.042Z,9.03
2019-04-05T18:06:05.352Z,10.03
2019-04-05T18:08:31.598Z,9.63
2019-04-05T18:10:58.211Z,10.20
2019-04-05T18:13:24.419Z,9.85
2019-04-05T18:15:52.764Z,11.00
2019-04-05T18:18:18.703Z,10.10
2019-04-05T18:20:45.481Z,10.67
2019-04-05T18:23:23.870Z,10.93
2019-04-05T18:25:39.932Z,9.97
2019-04-05T18:28:06.198Z,10.17
2019-04-05T18:30:33.180Z,12.03
2019-04-05T18:32:59.378Z,11.53
2019-04-05T18:35:25.653Z,11.00
2019-04-05T18:37:52.318Z,11.60
2019-04-05T18:40:18.549Z,12.17
2019-04-05T18:42:45.469Z,13.37
2019-04-05T18:45:11.982Z,13.10
2019-04-05T18:47:38.297Z,13.10
2019-04-05T18:50:06.033Z,13.60
2019-04-05T18:52:32.370Z,12.43
2019-04-05T18:54:58.624Z,11.47
2019-04-05T18:57:25.135Z,11.10
2019-04-05T18:59:53.574Z,11.03
2019-04-05T19:02:20.017Z,11.87
2019-04-05T19:04:46.273Z,13.90
2019-04-05T19:07:12.533Z,13.57
2019-04-05T19:09:38.888Z,11.80
2019-04-05T19:12:05.289Z,13.33
2019-04-05T19:14:31.455Z,14.80
2019-04-05T19:16:59.232Z,14.93
2019-04-05T19:19:25.777Z,13.07
2019-04-05T19:21:52.046Z,14.53
2019-04-05T19:24:18.483Z,12.13
2019-04-05T19:26:44.800Z,12.33
2019-04-05T19:29:11.236Z,11.17
2019-04-05T19:48:56.670Z,12.63
2019-04-05T19:51:22.944Z,11.87
2019-04-05T19:53:49.165Z,10.90
2019-04-05T19:56:15.339Z,10.30
2019-04-05T19:58:41.567Z,9.50
2019-04-05T20:01:07.936Z,9.17
2019-04-05T20:03:34.150Z,9.57
2019-04-05T20:06:00.621Z,8.93
2019-04-05T20:08:26.910Z,10.23
2019-04-05T20:10:53.238Z,9.60
2019-04-05T20:13:19.594Z,13.17
2019-04-05T20:15:45.811Z,14.63
2019-04-05T20:18:12.697Z,15.27
2019-04-05T20:20:39.516Z,14.00
2019-04-05T20:23:06.235Z,14.67
2019-04-05T20:25:32.665Z,14.43
2019-04-05T20:27:59.501Z,13.77
2019-04-05T20:30:25.695Z,12.43
2019-04-05T20:32:52.019Z,11.63
2019-04-05T20:35:18.151Z,10.13
2019-04-05T20:37:44.284Z,11.43
2019-04-05T20:40:10.801Z,12.47
2019-04-05T20:42:37.142Z,11.90
2019-04-05T20:45:04.197Z,12.20
2019-04-05T20:47:30.409Z,12.93
2019-04-05T20:49:56.666Z,13.27
2019-04-05T20:52:22.926Z,13.13
2019-04-05T20:54:49.068Z,14.30
2019-04-05T20:57:15.405Z,14.67
2019-04-05T20:59:41.612Z,12.73
2019-04-05T21:02:07.817Z,11.97
2019-04-05T21:04:34.220Z,12.20
2019-04-05T21:07:00.684Z,14.33
2019-04-05T21:09:27.023Z,12.30
2019-04-05T21:11:53.371Z,12.57
2019-04-05T21:14:19.508Z,11.93
2019-04-05T21:16:46.243Z,11.67
2019-04-05T21:19:13.063Z,10.80
2019-04-05T21:21:39.289Z,10.23
2019-04-05T21:24:05.731Z,9.60
2019-04-05T21:26:32.050Z,9.10
2019-04-05T21:28:58.345Z,9.80
2019-04-05T21:31:24.560Z,10.50
2019-04-05T21:33:50.927Z,9.70
2019-04-05T21:36:17.308Z,11.73
2019-04-05T21:38:43.518Z,9.73
2019-04-05T21:41:09.668Z,9.43
2019-04-05T21:43:35.794Z,9.17
2019-04-05T21:46:01.958Z,10.17
2019-04-05T21:48:30.538Z,9.80
2019-04-05T21:50:56.431Z,10.10
2019-04-05T21:53:22.584Z,10.70
2019-04-05T21:55:48.824Z,11.40
2019-04-05T21:58:15.109Z,10.87
2019-04-05T22:00:45.996Z,10.00
2019-04-05T22:03:12.338Z,9.40
2019-04-05T22:05:38.547Z,9.23
2019-04-05T22:08:04.790Z,9.30
2019-04-05T22:10:31.059Z,10.00
2019-04-05T22:12:57.277Z,10.13
2019-04-05T22:15:23.550Z,9.50
2019-04-05T22:17:49.819Z,10.63
2019-04-05T22:20:16.067Z,9.80
2019-04-05T22:22:42.234Z,10.17
2019-04-05T22:25:08.695Z,9.07
2019-04-05T22:27:34.925Z,9.37
2019-04-05T22:30:01.181Z,9.40
2019-04-05T22:32:27.444Z,8.30
2019-04-05T22:34:53.711Z,9.73
2019-04-05T22:37:19.962Z,10.30
2019-04-05T22:39:46.302Z,10.37
2019-04-05T22:42:12.547Z,9.33
2019-04-05T22:44:41.406Z,9.33
2019-04-05T22:47:07.145Z,8.50
2019-04-05T22:49:33.493Z,8.60
2019-04-05T22:51:59.691Z,7.80
2019-04-05T22:54:25.882Z,7.77
2019-04-05T22:56:52.115Z,7.20
2019-04-05T22:59:18.260Z,7.90
2019-04-05T23:01:44.399Z,8.03
2019-04-05T23:04:10.571Z,8.03
2019-04-05T23:06:36.874Z,7.87
2019-04-05T23:09:05.619Z,9.17
2019-04-05T23:11:31.849Z,9.30
2019-04-05T23:13:58.281Z,9.53
2019-04-05T23:16:24.652Z,9.37
2019-04-05T23:18:50.969Z,8.50
2019-04-05T23:21:17.166Z,8.60
2019-04-05T23:23:43.317Z,8.73
2019-04-05T23:26:09.658Z,9.30
2019-04-05T23:28:35.895Z,8.60
2019-04-05T23:31:02.248Z,8.80
2019-04-05T23:33:31.307Z,10.17
2019-04-05T23:35:57.542Z,9.97
2019-04-05T23:38:23.797Z,9.63
2019-04-05T23:40:50.126Z,10.17
2019-04-05T23:43:16.370Z,9.40
2019-04-05T23:45:42.558Z,8.90
2019-04-05T23:48:08.855Z,8.23
2019-04-05T23:50:35.213Z,7.70
2019-04-05T23:53:01.427Z,7.97
2019-04-05T23:55:33.276Z,8.17
2019-04-05T23:57:55.569Z,7.50
